createdAt,value
2022-09-06T00:00:30.195Z,14.05
2022-09-06T00:02:58.388Z,14.03
2022-09-06T00:05:27.308Z,14.02
2022-09-06T00:07:55.346Z,13.99
2022-09-06T00:10:23.444Z,13.96
2022-09-06T00:12:51.528Z,13.93
2022-09-06T00:15:20.005Z,13.91
2022-09-06T00:17:49.031Z,13.88
2022-09-06T00:20:18.009Z,13.85
2022-09-06T00:22:45.942Z,13.82
2022-09-06T00:25:14.742Z,13.79
2022-09-06T00:27:42.953Z,13.75
2022-09-06T00:30:12.053Z,13.72
2022-09-06T00:32:41.287Z,13.70
2022-09-06T00:35:09.651Z,13.68
2022-09-06T00:37:37.656Z,13.67
2022-09-06T00:40:06.301Z,13.65
2022-09-06T00:42:34.261Z,13.63
2022-09-06T00:45:02.630Z,13.58
2022-09-06T00:47:30.985Z,13.53
2022-09-06T00:50:00.824Z,13.48
2022-09-06T00:52:30.579Z,13.44
2022-09-06T00:54:59.861Z,13.41
2022-09-06T00:57:31.002Z,13.39
2022-09-06T01:00:04.813Z,13.36
2022-09-06T01:02:32.990Z,13.31
2022-09-06T01:05:02.884Z,13.28
2022-09-06T01:07:42.929Z,13.27
2022-09-06T01:10:29.001Z,13.26
2022-09-06T01:13:18.672Z,13.22
2022-09-06T01:16:31.947Z,13.19
2022-09-06T01:19:21.286Z,13.13
2022-09-06T01:22:17.302Z,13.08
2022-09-06T01:24:48.497Z,13.06
2022-09-06T01:27:44.297Z,13.05
2022-09-06T01:30:14.711Z,13.04
2022-09-06T01:32:57.650Z,13.01
2022-09-06T01:35:34.458Z,12.98
2022-09-06T01:38:04.020Z,12.94
2022-09-06T01:40:36.528Z,12.90
2022-09-06T01:43:11.051Z,12.86
2022-09-06T01:46:12.866Z,12.82
2022-09-06T01:48:46.842Z,12.77
2022-09-06T01:51:20.839Z,12.73
2022-09-06T01:54:06.319Z,12.69
2022-09-06T01:56:54.229Z,12.67
2022-09-06T01:59:31.303Z,12.61
2022-09-06T02:02:28.083Z,12.56
2022-09-06T02:05:09.199Z,12.52
2022-09-06T02:07:38.503Z,12.48
2022-09-06T02:10:09.213Z,12.47
2022-09-06T02:12:41.339Z,12.42
2022-09-06T02:15:19.988Z,12.37
2022-09-06T02:17:56.359Z,12.31
2022-09-06T02:20:28.831Z,12.25
2022-09-06T02:23:01.700Z,12.22
2022-09-06T02:25:44.036Z,12.19
2022-09-06T02:28:14.921Z,12.16
2022-09-06T02:30:49.302Z,12.15
2022-09-06T02:33:21.119Z,12.14
2022-09-06T02:35:52.330Z,12.14
2022-09-06T02:38:27.181Z,12.12
2022-09-06T02:40:57.090Z,12.10
2022-09-06T02:43:25.044Z,12.07
2022-09-06T02:45:53.438Z,12.05
2022-09-06T02:48:22.523Z,12.04
2022-09-06T02:50:50.506Z,12.05
2022-09-06T02:53:20.681Z,12.05
2022-09-06T02:55:49.174Z,12.07
2022-09-06T02:58:17.339Z,12.08
2022-09-06T03:00:45.446Z,12.09
2022-09-06T03:03:13.577Z,12.08
2022-09-06T03:05:41.814Z,12.06
2022-09-06T03:08:09.916Z,12.03
2022-09-06T03:10:38.157Z,12.01
2022-09-06T03:13:06.259Z,11.99
2022-09-06T03:15:34.792Z,11.98
2022-09-06T03:18:02.780Z,11.97
2022-09-06T03:20:35.043Z,11.97
2022-09-06T03:23:05.685Z,11.96
2022-09-06T03:25:33.724Z,11.92
2022-09-06T03:28:01.984Z,11.88
2022-09-06T03:30:30.066Z,11.86
2022-09-06T03:33:02.597Z,11.81
2022-09-06T03:35:31.544Z,11.78
2022-09-06T03:37:59.528Z,11.76
2022-09-06T03:40:27.581Z,11.76
2022-09-06T03:42:55.627Z,11.76
2022-09-06T03:45:23.902Z,11.77
2022-09-06T03:47:51.930Z,11.76
2022-09-06T03:50:20.015Z,11.73
2022-09-06T03:52:48.130Z,11.66
2022-09-06T03:55:16.354Z,11.57
2022-09-06T03:57:44.427Z,11.45
2022-09-06T04:00:13.441Z,11.44
2022-09-06T04:02:41.535Z,11.43
2022-09-06T04:05:10.364Z,11.42
2022-09-06T04:07:38.354Z,11.42
2022-09-06T04:10:07.142Z,11.43
2022-09-06T04:12:35.379Z,11.44
2022-09-06T04:15:03.977Z,11.43
2022-09-06T04:17:32.003Z,11.46
2022-09-06T04:20:03.022Z,11.49
2022-09-06T04:22:31.731Z,11.54
2022-09-06T04:25:01.641Z,11.64
2022-09-06T04:27:30.783Z,11.73
2022-09-06T04:29:59.106Z,11.80
2022-09-06T04:32:27.256Z,11.90
2022-09-06T04:34:55.263Z,11.98
2022-09-06T04:37:23.751Z,12.04
2022-09-06T04:39:51.910Z,12.11
2022-09-06T04:42:20.041Z,12.19
2022-09-06T04:44:48.208Z,12.26
2022-09-06T04:47:18.314Z,12.27
2022-09-06T04:49:48.332Z,12.34
2022-09-06T04:52:18.366Z,12.43
2022-09-06T04:54:46.535Z,12.36
2022-09-06T04:57:14.635Z,12.27
2022-09-06T04:59:42.891Z,12.36
2022-09-06T05:02:11.262Z,12.47
2022-09-06T05:04:39.367Z,12.57
2022-09-06T05:07:08.852Z,12.63
2022-09-06T05:09:37.094Z,12.74
2022-09-06T05:12:07.392Z,12.78
2022-09-06T05:14:36.057Z,12.77
2022-09-06T05:17:04.365Z,12.77
2022-09-06T05:19:32.522Z,12.79
2022-09-06T05:22:00.954Z,12.83
2022-09-06T05:24:29.493Z,12.88
2022-09-06T05:27:03.867Z,13.03
2022-09-06T05:29:31.982Z,13.16
2022-09-06T05:32:00.163Z,13.29
2022-09-06T05:34:28.349Z,13.38
2022-09-06T05:36:57.541Z,13.61
2022-09-06T05:39:26.175Z,13.83
2022-09-06T05:41:54.471Z,13.92
2022-09-06T05:44:22.596Z,14.17
2022-09-06T05:46:50.945Z,14.33
2022-09-06T05:49:19.079Z,14.39
2022-09-06T05:51:51.706Z,14.45
2022-09-06T05:54:20.043Z,14.64
2022-09-06T05:56:48.519Z,14.71
2022-09-06T05:59:17.143Z,14.80
2022-09-06T06:01:50.410Z,14.93
2022-09-06T06:04:19.822Z,15.07
2022-09-06T06:06:49.111Z,14.93
2022-09-06T06:09:17.697Z,15.16
2022-09-06T06:11:46.002Z,15.30
2022-09-06T06:14:14.053Z,15.42
2022-09-06T06:16:42.226Z,15.47
2022-09-06T06:19:10.456Z,15.53
2022-09-06T06:21:39.130Z,15.75
2022-09-06T06:24:07.455Z,15.85
2022-09-06T06:26:37.422Z,15.78
2022-09-06T06:29:09.617Z,15.86
2022-09-06T06:31:41.008Z,15.39
2022-09-06T06:34:09.275Z,15.35
2022-09-06T06:36:38.207Z,15.36
2022-09-06T06:39:08.733Z,15.42
2022-09-06T06:41:37.843Z,15.55
2022-09-06T06:44:24.987Z,15.57
2022-09-06T06:46:53.483Z,15.71
2022-09-06T06:49:21.613Z,15.81
2022-09-06T06:51:50.696Z,15.76
2022-09-06T06:54:19.154Z,15.67
2022-09-06T06:56:47.615Z,15.62
2022-09-06T06:59:16.487Z,15.77
2022-09-06T07:01:45.002Z,15.66
2022-09-06T07:04:14.488Z,15.65
2022-09-06T07:12:27.812Z,15.79
2022-09-06T07:14:56.337Z,15.66
2022-09-06T07:17:24.700Z,15.69
2022-09-06T07:22:42.667Z,15.88
2022-09-06T07:25:14.417Z,15.81
2022-09-06T07:30:21.364Z,15.81
2022-09-06T07:32:49.943Z,15.91
2022-09-06T07:35:20.803Z,16.04
2022-09-06T07:37:56.394Z,16.23
2022-09-06T07:40:26.985Z,16.16
2022-09-06T07:42:59.643Z,16.38
2022-09-06T07:45:28.636Z,16.45
2022-09-06T07:48:00.790Z,16.54
2022-09-06T07:50:48.007Z,16.65
2022-09-06T07:53:24.646Z,16.82
2022-09-06T07:56:00.989Z,16.93
2022-09-06T07:58:30.761Z,17.01
2022-09-06T08:01:31.637Z,17.07
2022-09-06T08:04:18.764Z,17.17
2022-09-06T08:09:42.229Z,17.34
2022-09-06T08:12:10.605Z,17.48
2022-09-06T08:14:39.271Z,17.57
2022-09-06T08:17:10.345Z,17.77
2022-09-06T08:19:39.205Z,17.95
2022-09-06T08:22:07.624Z,18.05
2022-09-06T08:24:38.815Z,18.22
2022-09-06T08:27:11.404Z,18.44
2022-09-06T08:29:40.138Z,18.49
2022-09-06T08:32:08.563Z,18.34
2022-09-06T08:34:37.325Z,18.55
2022-09-06T08:37:05.861Z,18.89
2022-09-06T08:39:35.004Z,19.09
2022-09-06T08:42:07.812Z,19.46
2022-09-06T08:44:56.745Z,19.75
2022-09-06T08:47:26.415Z,19.80
2022-09-06T08:50:02.546Z,20.04
2022-09-06T08:52:35.064Z,19.97
2022-09-06T08:55:06.726Z,19.71
2022-09-06T08:57:58.978Z,19.81
2022-09-06T09:00:27.880Z,19.88
2022-09-06T09:03:05.642Z,20.23
2022-09-06T09:05:37.531Z,20.59
2022-09-06T09:08:16.238Z,20.93
2022-09-06T09:10:56.981Z,21.36
2022-09-06T09:13:35.962Z,21.58
2022-09-06T09:16:07.312Z,21.85
2022-09-06T09:18:40.259Z,21.95
2022-09-06T09:21:11.131Z,21.70
2022-09-06T09:23:39.745Z,21.91
2022-09-06T09:26:16.726Z,22.08
2022-09-06T09:29:14.183Z,22.14
2022-09-06T09:31:56.365Z,22.11
2022-09-06T09:34:34.408Z,22.12
2022-09-06T09:40:03.169Z,22.20
2022-09-06T09:42:39.962Z,22.27
2022-09-06T09:45:31.275Z,22.05
2022-09-06T09:48:29.484Z,22.11
2022-09-06T09:51:25.442Z,22.38
2022-09-06T09:54:04.803Z,22.52
2022-09-06T09:56:53.104Z,22.33
2022-09-06T09:59:27.127Z,22.40
2022-09-06T10:02:00.281Z,22.54
2022-09-06T10:04:46.028Z,22.74
2022-09-06T10:07:18.539Z,22.96
2022-09-06T10:09:52.011Z,22.97
2022-09-06T10:12:35.310Z,23.10
2022-09-06T10:15:06.996Z,22.99
2022-09-06T10:17:48.448Z,22.95
2022-09-06T10:20:19.377Z,23.07
2022-09-06T10:23:10.416Z,23.03
2022-09-06T10:26:13.844Z,22.90
2022-09-06T10:28:42.769Z,22.99
2022-09-06T10:31:16.639Z,23.05
2022-09-06T10:34:03.192Z,22.99
2022-09-06T10:36:49.991Z,23.11
2022-09-06T10:39:42.238Z,22.93
2022-09-06T10:42:21.286Z,22.78
2022-09-06T10:45:26.929Z,23.03
2022-09-06T10:47:58.490Z,22.88
2022-09-06T10:50:57.796Z,22.78
2022-09-06T10:53:59.106Z,22.67
2022-09-06T10:57:07.199Z,22.69
2022-09-06T10:59:56.918Z,22.72
2022-09-06T11:02:40.730Z,22.61
2022-09-06T11:11:24.416Z,22.81
2022-09-06T11:13:53.310Z,23.03
2022-09-06T11:16:32.679Z,23.15
2022-09-06T11:19:11.485Z,23.23
2022-09-06T11:22:08.471Z,23.34
2022-09-06T11:24:58.954Z,23.34
2022-09-06T11:27:56.155Z,23.71
2022-09-06T11:30:54.358Z,23.46
2022-09-06T11:33:35.542Z,23.19
2022-09-06T11:36:26.866Z,23.32
2022-09-06T11:39:00.260Z,23.56
2022-09-06T11:41:36.204Z,23.66
2022-09-06T11:44:20.643Z,23.78
2022-09-06T11:46:57.077Z,23.90
2022-09-06T11:49:35.862Z,24.02
2022-09-06T11:52:46.514Z,23.97
2022-09-06T11:55:22.634Z,23.83
2022-09-06T11:58:01.737Z,23.97
2022-09-06T12:00:30.155Z,24.18
2022-09-06T12:06:33.097Z,24.00
2022-09-06T12:09:30.082Z,24.15
2022-09-06T12:12:00.865Z,24.10
2022-09-06T12:14:40.774Z,24.64
2022-09-06T12:17:10.094Z,24.89
2022-09-06T12:19:54.367Z,25.26
2022-09-06T12:22:43.488Z,25.71
2022-09-06T12:25:51.816Z,25.93
2022-09-06T12:29:00.178Z,26.46
2022-09-06T12:31:40.118Z,26.46
2022-09-06T12:34:22.067Z,26.86
2022-09-06T12:37:10.795Z,27.17
2022-09-06T12:39:39.645Z,27.70
2022-09-06T12:42:16.600Z,27.69
2022-09-06T12:44:51.978Z,27.99
2022-09-06T12:47:35.435Z,28.42
2022-09-06T12:50:15.322Z,29.08
2022-09-06T12:52:54.870Z,29.63
2022-09-06T12:55:32.818Z,29.96
2022-09-06T12:58:29.749Z,30.34
2022-09-06T13:01:14.589Z,30.69
2022-09-06T13:04:08.251Z,30.16
2022-09-06T13:06:42.929Z,30.53
2022-09-06T13:09:17.114Z,30.82
2022-09-06T13:11:51.299Z,30.36
2022-09-06T13:14:29.237Z,29.80
2022-09-06T13:17:01.689Z,30.51
2022-09-06T13:19:30.435Z,31.13
2022-09-06T13:22:03.954Z,30.64
2022-09-06T13:24:46.898Z,30.69
2022-09-06T13:27:38.519Z,31.28
2022-09-06T13:30:11.918Z,31.38
2022-09-06T13:32:50.339Z,32.17
2022-09-06T13:35:24.066Z,32.33
2022-09-06T13:37:52.876Z,32.61
2022-09-06T13:41:09.838Z,32.68
2022-09-06T13:43:42.957Z,32.06
2022-09-06T13:46:11.885Z,31.74
2022-09-06T13:48:41.621Z,30.44
2022-09-06T13:51:11.124Z,30.86
2022-09-06T13:53:39.369Z,31.30
2022-09-06T13:56:08.899Z,32.40
2022-09-06T13:58:37.866Z,32.69
2022-09-06T14:01:10.135Z,32.43
2022-09-06T14:03:42.198Z,32.95
2022-09-06T14:06:11.785Z,32.87
2022-09-06T14:11:31.504Z,32.83
2022-09-06T14:13:59.994Z,33.36
2022-09-06T14:16:28.489Z,33.65
2022-09-06T14:19:00.129Z,33.42
2022-09-06T14:21:28.982Z,33.75
2022-09-06T14:24:03.860Z,33.98
2022-09-06T14:26:34.443Z,33.62
2022-09-06T14:29:04.505Z,33.08
2022-09-06T14:31:33.295Z,32.85
2022-09-06T14:34:02.846Z,32.89
2022-09-06T14:36:34.009Z,32.76
2022-09-06T14:39:05.634Z,33.03
2022-09-06T14:41:34.398Z,33.24
2022-09-06T14:44:04.413Z,32.83
2022-09-06T14:46:32.862Z,32.97
2022-09-06T14:49:10.264Z,33.04
2022-09-06T14:51:40.830Z,32.99
2022-09-06T14:54:13.164Z,33.35
2022-09-06T14:56:43.968Z,32.88
2022-09-06T14:59:13.465Z,32.80
2022-09-06T15:01:42.100Z,32.39
2022-09-06T15:04:12.066Z,32.52
2022-09-06T15:06:45.119Z,32.86
2022-09-06T15:09:17.518Z,32.95
2022-09-06T15:11:48.959Z,33.10
2022-09-06T15:14:23.571Z,31.96
2022-09-06T15:17:00.173Z,30.63
2022-09-06T15:19:30.559Z,29.91
2022-09-06T15:22:03.714Z,29.38
2022-09-06T15:24:33.891Z,29.31
2022-09-06T15:27:02.291Z,28.77
2022-09-06T15:29:32.842Z,28.52
2022-09-06T15:32:01.126Z,29.04
2022-09-06T15:34:29.894Z,29.52
2022-09-06T15:36:58.568Z,29.75
2022-09-06T15:39:27.995Z,29.53
2022-09-06T15:41:58.058Z,29.93
2022-09-06T15:44:26.743Z,30.32
2022-09-06T15:47:02.387Z,31.12
2022-09-06T15:49:32.914Z,31.17
2022-09-06T15:52:03.162Z,30.65
2022-09-06T15:54:50.294Z,30.13
2022-09-06T15:57:18.756Z,28.91
2022-09-06T15:59:48.632Z,28.71
2022-09-06T16:02:17.253Z,28.00
2022-09-06T16:04:46.825Z,27.41
2022-09-06T16:07:15.381Z,27.23
2022-09-06T16:09:45.553Z,26.61
2022-09-06T16:12:15.210Z,26.07
2022-09-06T16:14:43.626Z,25.51
2022-09-06T16:17:12.524Z,25.18
2022-09-06T16:19:41.470Z,24.83
2022-09-06T16:22:10.339Z,24.65
2022-09-06T16:24:39.337Z,24.30
2022-09-06T16:27:07.816Z,24.16
2022-09-06T16:29:36.963Z,23.88
2022-09-06T16:32:05.349Z,23.72
2022-09-06T16:34:34.119Z,23.42
2022-09-06T16:37:08.214Z,22.99
2022-09-06T16:39:37.865Z,22.83
2022-09-06T16:42:06.897Z,22.60
2022-09-06T16:44:35.429Z,22.46
2022-09-06T16:47:05.217Z,22.31
2022-09-06T16:49:36.702Z,22.17
2022-09-06T16:52:05.314Z,22.01
2022-09-06T16:54:34.091Z,21.87
2022-09-06T16:57:05.182Z,21.63
2022-09-06T16:59:34.508Z,21.48
2022-09-06T17:02:03.450Z,21.34
2022-09-06T17:04:32.099Z,21.19
2022-09-06T17:07:00.661Z,21.07
2022-09-06T17:09:29.012Z,20.92
2022-09-06T17:11:57.449Z,20.72
2022-09-06T17:14:25.939Z,20.65
2022-09-06T17:17:06.047Z,20.49
2022-09-06T17:19:37.711Z,20.39
2022-09-06T17:22:06.281Z,20.34
2022-09-06T17:24:34.472Z,20.25
2022-09-06T17:27:04.637Z,20.16
2022-09-06T17:29:33.338Z,20.06
2022-09-06T17:32:04.484Z,19.97
2022-09-06T17:34:32.805Z,19.85
2022-09-06T17:37:01.069Z,19.70
2022-09-06T17:39:29.611Z,19.55
2022-09-06T17:41:59.794Z,19.38
2022-09-06T17:44:28.751Z,19.22
2022-09-06T17:47:14.027Z,19.06
2022-09-06T17:49:43.639Z,18.91
2022-09-06T17:52:12.457Z,18.76
2022-09-06T17:54:41.260Z,18.68
2022-09-06T17:57:10.240Z,18.59
2022-09-06T17:59:39.674Z,18.49
2022-09-06T18:02:08.610Z,18.39
2022-09-06T18:04:37.114Z,18.30
2022-09-06T18:07:05.378Z,18.24
2022-09-06T18:09:34.127Z,18.15
2022-09-06T18:12:04.024Z,18.05
2022-09-06T18:14:34.562Z,17.97
2022-09-06T18:17:03.033Z,17.88
2022-09-06T18:19:31.240Z,17.78
2022-09-06T18:21:59.589Z,17.69
2022-09-06T18:24:29.202Z,17.63
2022-09-06T18:26:57.636Z,17.56
2022-09-06T18:29:25.768Z,17.48
2022-09-06T18:31:54.187Z,17.43
2022-09-06T18:34:22.867Z,17.37
2022-09-06T18:36:51.206Z,17.28
2022-09-06T18:39:20.559Z,17.23
2022-09-06T18:42:01.155Z,17.15
2022-09-06T18:44:32.941Z,17.05
2022-09-06T18:47:03.417Z,16.95
2022-09-06T18:49:33.926Z,16.90
2022-09-06T18:52:04.191Z,16.84
2022-09-06T18:54:32.876Z,16.78
2022-09-06T18:57:01.169Z,16.71
2022-09-06T18:59:29.315Z,16.65
2022-09-06T19:01:58.007Z,16.60
2022-09-06T19:04:26.412Z,16.54
2022-09-06T19:06:54.776Z,16.45
2022-09-06T19:09:23.429Z,16.37
2022-09-06T19:11:53.299Z,16.35
2022-09-06T19:14:22.094Z,16.31
2022-09-06T19:16:51.983Z,16.28
2022-09-06T19:19:21.972Z,16.23
2022-09-06T19:21:50.913Z,16.20
2022-09-06T19:24:22.929Z,16.17
2022-09-06T19:26:53.169Z,16.11
2022-09-06T19:29:21.451Z,16.06
2022-09-06T19:31:49.989Z,15.97
2022-09-06T19:34:18.588Z,15.93
2022-09-06T19:36:47.265Z,15.87
2022-09-06T19:39:16.753Z,15.81
2022-09-06T19:41:47.890Z,15.75
2022-09-06T19:44:17.120Z,15.70
2022-09-06T19:46:47.297Z,15.66
2022-09-06T19:49:17.724Z,15.65
2022-09-06T19:51:49.210Z,15.63
2022-09-06T19:54:18.892Z,15.62
2022-09-06T19:56:47.335Z,15.61
2022-09-06T19:59:18.119Z,15.58
2022-09-06T20:01:47.806Z,15.56
2022-09-06T20:04:16.529Z,15.54
2022-09-06T20:06:44.746Z,15.49
2022-09-06T20:09:13.627Z,15.41
2022-09-06T20:11:42.620Z,15.36
2022-09-06T20:14:12.175Z,15.29
2022-09-06T20:16:43.130Z,15.24
2022-09-06T20:19:12.762Z,15.20
2022-09-06T20:21:40.968Z,15.18
2022-09-06T20:24:09.573Z,15.18
2022-09-06T20:26:37.983Z,15.17
2022-09-06T20:29:07.263Z,15.12
2022-09-06T20:31:37.305Z,15.10
2022-09-06T20:34:07.156Z,15.06
2022-09-06T20:36:37.398Z,15.01
2022-09-06T20:39:05.602Z,14.96
2022-09-06T20:41:34.252Z,14.90
2022-09-06T20:44:02.788Z,14.86
2022-09-06T20:46:35.303Z,14.80
2022-09-06T20:49:05.178Z,14.75
2022-09-06T20:51:35.680Z,14.71
2022-09-06T20:54:05.688Z,14.67
2022-09-06T20:56:39.482Z,14.66
2022-09-06T20:59:09.928Z,14.69
2022-09-06T21:01:42.259Z,14.73
2022-09-06T21:04:12.558Z,14.77
2022-09-06T21:06:41.317Z,14.80
2022-09-06T21:09:13.349Z,14.79
2022-09-06T21:11:41.486Z,14.77
2022-09-06T21:14:10.987Z,14.72
2022-09-06T21:16:40.787Z,14.68
2022-09-06T21:19:11.010Z,14.67
2022-09-06T21:21:39.881Z,14.66
2022-09-06T21:24:09.833Z,14.66
2022-09-06T21:26:38.955Z,14.63
2022-09-06T21:29:07.168Z,14.60
2022-09-06T21:31:37.459Z,14.57
2022-09-06T21:34:11.520Z,14.54
2022-09-06T21:36:43.250Z,14.50
2022-09-06T21:39:14.928Z,14.46
2022-09-06T21:41:44.174Z,14.44
2022-09-06T21:44:13.337Z,14.43
2022-09-06T21:46:42.229Z,14.42
2022-09-06T21:49:12.933Z,14.41
2022-09-06T21:51:42.365Z,14.39
2022-09-06T21:54:10.578Z,14.37
2022-09-06T21:56:40.395Z,14.35
2022-09-06T21:59:09.257Z,14.35
2022-09-06T22:01:39.515Z,14.34
2022-09-06T22:04:08.338Z,14.33
2022-09-06T22:06:37.929Z,14.32
2022-09-06T22:09:11.161Z,14.30
2022-09-06T22:11:42.161Z,14.26
2022-09-06T22:14:13.430Z,14.26
2022-09-06T22:16:42.293Z,14.25
2022-09-06T22:19:11.031Z,14.25
2022-09-06T22:21:39.695Z,14.24
2022-09-06T22:24:10.220Z,14.21
2022-09-06T22:26:40.136Z,14.20
2022-09-06T22:29:10.958Z,14.18
2022-09-06T22:31:39.507Z,14.17
2022-09-06T22:34:08.385Z,14.17
2022-09-06T22:36:36.578Z,14.17
2022-09-06T22:39:05.489Z,14.22
2022-09-06T22:41:34.330Z,14.24
2022-09-06T22:44:04.092Z,14.25
2022-09-06T22:46:33.095Z,14.26
2022-09-06T22:49:02.617Z,14.26
2022-09-06T22:51:30.874Z,14.28
2022-09-06T22:53:58.858Z,14.31
2022-09-06T22:56:29.047Z,14.34
2022-09-06T22:58:59.970Z,14.39
2022-09-06T23:01:28.858Z,14.44
2022-09-06T23:03:56.994Z,14.44
2022-09-06T23:06:25.763Z,14.47
2022-09-06T23:08:53.927Z,14.47
2022-09-06T23:11:21.934Z,14.50
2022-09-06T23:13:54.913Z,14.52
2022-09-06T23:16:23.173Z,14.53
2022-09-06T23:18:51.407Z,14.54
2022-09-06T23:21:22.612Z,14.54
2022-09-06T23:23:52.851Z,14.52
2022-09-06T23:26:23.205Z,14.50
2022-09-06T23:28:56.568Z,14.45
2022-09-06T23:31:31.662Z,14.44
2022-09-06T23:34:00.541Z,14.40
2022-09-06T23:36:29.105Z,14.35
2022-09-06T23:38:57.671Z,14.35
2022-09-06T23:41:25.863Z,14.33
2022-09-06T23:43:54.719Z,14.28
2022-09-06T23:46:23.122Z,14.27
2022-09-06T23:48:51.225Z,14.26
2022-09-06T23:51:19.890Z,14.26
2022-09-06T23:53:48.113Z,14.30
2022-09-06T23:56:16.289Z,14.33
2022-09-06T23:58:44.329Z,14.37
